sensor_id;sensor_type;location;lat;lon;timestamp;pressure;altitude;pressure_sealevel;temperature;humidity
49342;BME280;35210;41.606;-87.602;2023-04-27T00:00:42;100198.94;;;10.87;46.40
49342;BME280;35210;41.606;-87.602;2023-04-27T00:03:10;100200.13;;;10.96;47.14
49342;BME280;35210;41.606;-87.602;2023-04-27T00:05:38;100204.75;;;10.92;46.98
49342;BME280;35210;41.606;-87.602;2023-04-27T00:08:07;100191.56;;;10.92;47.45
49342;BME280;35210;41.606;-87.602;2023-04-27T00:10:35;100186.59;;;11.00;46.95
49342;BME280;35210;41.606;-87.602;2023-04-27T00:13:03;100194.09;;;10.94;47.05
49342;BME280;35210;41.606;-87.602;2023-04-27T00:15:33;100193.97;;;10.82;48.28
49342;BME280;35210;41.606;-87.602;2023-04-27T00:18:01;100198.94;;;10.87;47.39
49342;BME280;35210;41.606;-87.602;2023-04-27T00:20:29;100195.41;;;10.74;47.65
49342;BME280;35210;41.606;-87.602;2023-04-27T00:22:59;100184.78;;;10.61;47.40
49342;BME280;35210;41.606;-87.602;2023-04-27T00:25:28;100184.94;;;10.45;48.01
49342;BME280;35210;41.606;-87.602;2023-04-27T00:27:57;100185.66;;;10.35;48.21
49342;BME280;35210;41.606;-87.602;2023-04-27T00:30:25;100182.47;;;10.15;48.95
49342;BME280;35210;41.606;-87.602;2023-04-27T00:32:55;100193.69;;;10.05;49.49
49342;BME280;35210;41.606;-87.602;2023-04-27T00:35:23;100197.19;;;10.05;50.35
49342;BME280;35210;41.606;-87.602;2023-04-27T00:37:53;100203.03;;;9.96;50.36
49342;BME280;35210;41.606;-87.602;2023-04-27T00:40:21;100210.00;;;9.97;51.02
49342;BME280;35210;41.606;-87.602;2023-04-27T00:42:50;100224.78;;;10.00;51.38
49342;BME280;35210;41.606;-87.602;2023-04-27T00:45:18;100213.56;;;9.96;51.19
49342;BME280;35210;41.606;-87.602;2023-04-27T00:47:46;100212.72;;;9.96;52.06
49342;BME280;35210;41.606;-87.602;2023-04-27T00:50:19;100212.53;;;9.99;52.40
49342;BME280;35210;41.606;-87.602;2023-04-27T00:52:49;100219.88;;;9.94;53.03
49342;BME280;35210;41.606;-87.602;2023-04-27T00:55:17;100221.59;;;9.95;53.28
49342;BME280;35210;41.606;-87.602;2023-04-27T00:57:45;100219.50;;;10.00;53.24
49342;BME280;35210;41.606;-87.602;2023-04-27T01:00:14;100215.56;;;10.07;52.96
49342;BME280;35210;41.606;-87.602;2023-04-27T01:02:42;100218.75;;;10.12;53.12
49342;BME280;35210;41.606;-87.602;2023-04-27T01:05:11;100210.44;;;10.18;53.08
49342;BME280;35210;41.606;-87.602;2023-04-27T01:07:41;100210.09;;;10.24;52.83
49342;BME280;35210;41.606;-87.602;2023-04-27T01:10:09;100212.72;;;10.24;52.61
49342;BME280;35210;41.606;-87.602;2023-04-27T01:12:37;100213.69;;;10.23;53.29
49342;BME280;35210;41.606;-87.602;2023-04-27T01:15:07;100216.31;;;10.23;53.29
49342;BME280;35210;41.606;-87.602;2023-04-27T01:17:36;100211.03;;;10.23;53.40
49342;BME280;35210;41.606;-87.602;2023-04-27T01:20:05;100210.28;;;10.21;53.51
49342;BME280;35210;41.606;-87.602;2023-04-27T01:22:36;100195.19;;;10.23;54.22
49342;BME280;35210;41.606;-87.602;2023-04-27T01:25:07;100204.41;;;10.16;54.26
49342;BME280;35210;41.606;-87.602;2023-04-27T01:27:35;100207.34;;;10.11;54.56
49342;BME280;35210;41.606;-87.602;2023-04-27T01:30:04;100206.69;;;10.08;54.64
49342;BME280;35210;41.606;-87.602;2023-04-27T01:32:33;100218.28;;;10.05;54.66
49342;BME280;35210;41.606;-87.602;2023-04-27T01:35:03;100201.59;;;10.05;54.43
49342;BME280;35210;41.606;-87.602;2023-04-27T01:37:32;100208.19;;;10.12;54.51
49342;BME280;35210;41.606;-87.602;2023-04-27T01:40:00;100208.09;;;10.13;54.67
49342;BME280;35210;41.606;-87.602;2023-04-27T01:42:32;100204.41;;;10.16;55.14
49342;BME280;35210;41.606;-87.602;2023-04-27T01:45:00;100204.22;;;10.19;54.79
49342;BME280;35210;41.606;-87.602;2023-04-27T01:47:29;100195.19;;;10.23;54.97
49342;BME280;35210;41.606;-87.602;2023-04-27T01:49:57;100189.16;;;10.21;54.58
49342;BME280;35210;41.606;-87.602;2023-04-27T01:52:25;100191.97;;;10.18;54.56
49342;BME280;35210;41.606;-87.602;2023-04-27T01:54:53;100204.41;;;10.16;54.65
49342;BME280;35210;41.606;-87.602;2023-04-27T01:57:21;100200.00;;;10.16;54.76
49342;BME280;35210;41.606;-87.602;2023-04-27T01:59:51;100197.44;;;10.15;54.91
49342;BME280;35210;41.606;-87.602;2023-04-27T02:02:21;100194.06;;;10.13;54.59
49342;BME280;35210;41.606;-87.602;2023-04-27T02:04:49;100190.28;;;10.17;54.76
49342;BME280;35210;41.606;-87.602;2023-04-27T02:07:18;100190.47;;;10.14;55.11
49342;BME280;35210;41.606;-87.602;2023-04-27T02:09:46;100189.44;;;10.16;54.38
49342;BME280;35210;41.606;-87.602;2023-04-27T02:12:15;100183.69;;;10.10;54.96
49342;BME280;35210;41.606;-87.602;2023-04-27T02:14:43;100191.81;;;10.07;55.06
49342;BME280;35210;41.606;-87.602;2023-04-27T02:17:13;100190.28;;;10.03;55.11
49342;BME280;35210;41.606;-87.602;2023-04-27T02:19:41;100179.19;;;9.98;55.43
49342;BME280;35210;41.606;-87.602;2023-04-27T02:22:09;100174.84;;;9.97;55.72
49342;BME280;35210;41.606;-87.602;2023-04-27T02:24:37;100179.28;;;9.96;55.47
49342;BME280;35210;41.606;-87.602;2023-04-27T02:27:05;100172.41;;;9.94;56.10
49342;BME280;35210;41.606;-87.602;2023-04-27T02:29:35;100178.63;;;9.93;55.84
49342;BME280;35210;41.606;-87.602;2023-04-27T02:32:04;100167.31;;;9.91;56.44
49342;BME280;35210;41.606;-87.602;2023-04-27T02:34:34;100169.19;;;9.88;56.19
49342;BME280;35210;41.606;-87.602;2023-04-27T02:37:02;100167.69;;;9.84;56.41
49342;BME280;35210;41.606;-87.602;2023-04-27T02:39:31;100170.53;;;9.81;57.14
49342;BME280;35210;41.606;-87.602;2023-04-27T02:41:59;100174.00;;;9.82;56.88
49342;BME280;35210;41.606;-87.602;2023-04-27T02:44:28;100171.56;;;9.79;57.79
49342;BME280;35210;41.606;-87.602;2023-04-27T02:46:56;100167.31;;;9.76;58.30
49342;BME280;35210;41.606;-87.602;2023-04-27T02:49:24;100172.03;;;9.71;58.31
49342;BME280;35210;41.606;-87.602;2023-04-27T02:51:55;100169.69;;;9.67;58.71
49342;BME280;35210;41.606;-87.602;2023-04-27T02:54:24;100162.72;;;9.66;58.32
49342;BME280;35210;41.606;-87.602;2023-04-27T02:56:52;100167.91;;;9.67;58.05
49342;BME280;35210;41.606;-87.602;2023-04-27T02:59:20;100170.75;;;9.64;58.46
49342;BME280;35210;41.606;-87.602;2023-04-27T03:01:48;100175.19;;;9.64;59.08
49342;BME280;35210;41.606;-87.602;2023-04-27T03:04:17;100170.94;;;9.61;59.06
49342;BME280;35210;41.606;-87.602;2023-04-27T03:06:46;100177.25;;;9.59;59.09
49342;BME280;35210;41.606;-87.602;2023-04-27T03:09:15;100175.63;;;9.56;59.53
49342;BME280;35210;41.606;-87.602;2023-04-27T03:11:43;100173.00;;;9.56;59.36
49342;BME280;35210;41.606;-87.602;2023-04-27T03:14:11;100174.69;;;9.57;59.78
49342;BME280;35210;41.606;-87.602;2023-04-27T03:16:40;100172.91;;;9.58;59.42
49342;BME280;35210;41.606;-87.602;2023-04-27T03:19:08;100167.72;;;9.56;59.74
49342;BME280;35210;41.606;-87.602;2023-04-27T03:21:36;100171.31;;;9.55;59.83
49342;BME280;35210;41.606;-87.602;2023-04-27T03:24:05;100169.63;;;9.54;59.85
49342;BME280;35210;41.606;-87.602;2023-04-27T03:26:34;100168.09;;;9.50;60.05
49342;BME280;35210;41.606;-87.602;2023-04-27T03:29:03;100167.44;;;9.46;59.68
49342;BME280;35210;41.606;-87.602;2023-04-27T03:31:31;100171.19;;;9.42;60.35
49342;BME280;35210;41.606;-87.602;2023-04-27T03:33:59;100171.38;;;9.39;60.73
49342;BME280;35210;41.606;-87.602;2023-04-27T03:36:27;100175.91;;;9.37;61.23
49342;BME280;35210;41.606;-87.602;2023-04-27T03:38:57;100174.38;;;9.33;61.99
49342;BME280;35210;41.606;-87.602;2023-04-27T03:41:25;100173.72;;;9.30;62.62
49342;BME280;35210;41.606;-87.602;2023-04-27T03:43:54;100181.81;;;9.27;63.18
49342;BME280;35210;41.606;-87.602;2023-04-27T03:46:22;100180.97;;;9.26;63.36
49342;BME280;35210;41.606;-87.602;2023-04-27T03:48:51;100179.38;;;9.23;63.46
49342;BME280;35210;41.606;-87.602;2023-04-27T03:51:21;100178.78;;;9.18;63.55
49342;BME280;35210;41.606;-87.602;2023-04-27T03:53:49;100176.34;;;9.15;63.36
49342;BME280;35210;41.606;-87.602;2023-04-27T03:56:18;100165.03;;;9.13;64.01
49342;BME280;35210;41.606;-87.602;2023-04-27T03:58:46;100172.19;;;9.11;64.27
49342;BME280;35210;41.606;-87.602;2023-04-27T04:01:16;100162.59;;;9.10;63.96
49342;BME280;35210;41.606;-87.602;2023-04-27T04:03:44;100163.53;;;9.09;64.16
49342;BME280;35210;41.606;-87.602;2023-04-27T04:06:13;100159.56;;;9.02;64.23
49342;BME280;35210;41.606;-87.602;2023-04-27T04:08:45;100154.91;;;8.92;64.56
49342;BME280;35210;41.606;-87.602;2023-04-27T04:11:13;100149.19;;;8.85;64.82
49342;BME280;35210;41.606;-87.602;2023-04-27T04:13:41;100143.06;;;8.84;64.60
49342;BME280;35210;41.606;-87.602;2023-04-27T04:16:09;100143.25;;;8.81;64.54
49342;BME280;35210;41.606;-87.602;2023-04-27T04:18:39;100153.03;;;8.79;64.90
49342;BME280;35210;41.606;-87.602;2023-04-27T04:21:08;100153.03;;;8.79;65.06
49342;BME280;35210;41.606;-87.602;2023-04-27T04:23:37;100158.47;;;8.76;65.31
49342;BME280;35210;41.606;-87.602;2023-04-27T04:26:07;100157.63;;;8.76;65.66
49342;BME280;35210;41.606;-87.602;2023-04-27T04:28:35;100156.94;;;8.72;66.50
49342;BME280;35210;41.606;-87.602;2023-04-27T04:31:03;100154.59;;;8.68;66.69
49342;BME280;35210;41.606;-87.602;2023-04-27T04:33:34;100156.47;;;8.66;67.11
49342;BME280;35210;41.606;-87.602;2023-04-27T04:36:05;100151.19;;;8.66;66.90
49342;BME280;35210;41.606;-87.602;2023-04-27T04:38:34;100157.56;;;8.62;67.45
49342;BME280;35210;41.606;-87.602;2023-04-27T04:41:02;100154.94;;;8.62;67.20
49342;BME280;35210;41.606;-87.602;2023-04-27T04:43:30;100151.63;;;8.58;66.77
49342;BME280;35210;41.606;-87.602;2023-04-27T04:45:59;100144.75;;;8.55;66.43
49342;BME280;35210;41.606;-87.602;2023-04-27T04:48:27;100144.00;;;8.53;66.49
49342;BME280;35210;41.606;-87.602;2023-04-27T04:50:55;100145.03;;;8.51;66.69
49342;BME280;35210;41.606;-87.602;2023-04-27T04:53:25;100144.34;;;8.47;66.73
49342;BME280;35210;41.606;-87.602;2023-04-27T04:55:53;100147.91;;;8.46;67.19
49342;BME280;35210;41.606;-87.602;2023-04-27T04:58:21;100144.44;;;8.46;67.12
49342;BME280;35210;41.606;-87.602;2023-04-27T05:00:52;100136.78;;;8.41;67.28
49342;BME280;35210;41.606;-87.602;2023-04-27T05:03:31;100139.44;;;8.41;67.30
49342;BME280;35210;41.606;-87.602;2023-04-27T05:05:59;100144.88;;;8.38;66.87
49342;BME280;35210;41.606;-87.602;2023-04-27T05:08:29;100133.75;;;8.33;67.28
49342;BME280;35210;41.606;-87.602;2023-04-27T05:10:57;100134.81;;;8.29;67.67
49342;BME280;35210;41.606;-87.602;2023-04-27T05:13:25;100127.03;;;8.28;67.29
49342;BME280;35210;41.606;-87.602;2023-04-27T05:15:54;100130.75;;;8.23;67.16
49342;BME280;35210;41.606;-87.602;2023-04-27T05:18:22;100127.44;;;8.20;67.27
49342;BME280;35210;41.606;-87.602;2023-04-27T05:20:51;100122.94;;;8.22;67.64
49342;BME280;35210;41.606;-87.602;2023-04-27T05:23:19;100117.31;;;8.14;68.34
49342;BME280;35210;41.606;-87.602;2023-04-27T05:25:48;100116.88;;;8.06;68.74
49342;BME280;35210;41.606;-87.602;2023-04-27T05:28:16;100106.53;;;8.03;69.24
49342;BME280;35210;41.606;-87.602;2023-04-27T05:30:45;100107.63;;;7.99;69.23
49342;BME280;35210;41.606;-87.602;2023-04-27T05:33:13;100110.59;;;7.93;69.26
49342;BME280;35210;41.606;-87.602;2023-04-27T05:35:42;100107.13;;;7.92;69.11
49342;BME280;35210;41.606;-87.602;2023-04-27T05:38:10;100099.41;;;7.89;69.19
49342;BME280;35210;41.606;-87.602;2023-04-27T05:40:42;100103.81;;;7.88;69.22
49342;BME280;35210;41.606;-87.602;2023-04-27T05:43:11;100096.94;;;7.86;69.40
49342;BME280;35210;41.606;-87.602;2023-04-27T05:45:39;100104.84;;;7.86;69.17
49342;BME280;35210;41.606;-87.602;2023-04-27T05:48:08;100092.69;;;7.83;69.07
49342;BME280;35210;41.606;-87.602;2023-04-27T05:50:36;100093.63;;;7.82;69.00
49342;BME280;35210;41.606;-87.602;2023-04-27T05:53:04;100090.06;;;7.83;68.67
49342;BME280;35210;41.606;-87.602;2023-04-27T05:55:32;100090.25;;;7.80;68.79
49342;BME280;35210;41.606;-87.602;2023-04-27T05:58:01;100086.69;;;7.81;69.23
49342;BME280;35210;41.606;-87.602;2023-04-27T06:00:31;100084.06;;;7.81;68.96
49342;BME280;35210;41.606;-87.602;2023-04-27T06:02:59;100083.28;;;7.79;68.89
49342;BME280;35210;41.606;-87.602;2023-04-27T06:05:27;100082.44;;;7.79;68.23
49342;BME280;35210;41.606;-87.602;2023-04-27T06:07:55;100073.63;;;7.80;68.15
49342;BME280;35210;41.606;-87.602;2023-04-27T06:10:23;100074.81;;;7.74;67.97
49342;BME280;35210;41.606;-87.602;2023-04-27T06:12:51;100076.66;;;7.72;67.64
49342;BME280;35210;41.606;-87.602;2023-04-27T06:15:19;100067.34;;;7.67;67.82
49342;BME280;35210;41.606;-87.602;2023-04-27T06:17:49;100069.38;;;7.62;67.52
49342;BME280;35210;41.606;-87.602;2023-04-27T06:20:18;100064.19;;;7.60;67.75
49342;BME280;35210;41.606;-87.602;2023-04-27T06:22:46;100069.53;;;7.58;68.04
49342;BME280;35210;41.606;-87.602;2023-04-27T06:25:14;100070.47;;;7.57;67.99
49342;BME280;35210;41.606;-87.602;2023-04-27T06:27:42;100067.16;;;7.54;68.10
49342;BME280;35210;41.606;-87.602;2023-04-27T06:30:12;100071.47;;;7.55;67.89
49342;BME280;35210;41.606;-87.602;2023-04-27T06:32:40;100068.94;;;7.53;67.90
49342;BME280;35210;41.606;-87.602;2023-04-27T06:35:10;100064.78;;;7.49;67.96
49342;BME280;35210;41.606;-87.602;2023-04-27T06:37:39;100061.38;;;7.47;68.00
49342;BME280;35210;41.606;-87.602;2023-04-27T06:40:07;100060.53;;;7.47;67.28
49342;BME280;35210;41.606;-87.602;2023-04-27T06:42:36;100060.06;;;7.40;67.17
49342;BME280;35210;41.606;-87.602;2023-04-27T06:45:05;100058.44;;;7.38;67.75
49342;BME280;35210;41.606;-87.602;2023-04-27T06:47:33;100055.97;;;7.35;68.15
49342;BME280;35210;41.606;-87.602;2023-04-27T06:50:03;100052.59;;;7.33;68.50
49342;BME280;35210;41.606;-87.602;2023-04-27T06:52:33;100056.22;;;7.30;69.13
49342;BME280;35210;41.606;-87.602;2023-04-27T06:55:01;100050.28;;;7.27;69.52
49342;BME280;35210;41.606;-87.602;2023-04-27T06:57:29;100043.34;;;7.25;69.51
49342;BME280;35210;41.606;-87.602;2023-04-27T06:59:57;100049.50;;;7.24;69.69
49342;BME280;35210;41.606;-87.602;2023-04-27T07:02:25;100041.88;;;7.20;69.66
49342;BME280;35210;41.606;-87.602;2023-04-27T07:04:53;100037.81;;;7.14;70.09
49342;BME280;35210;41.606;-87.602;2023-04-27T07:07:21;100033.47;;;7.13;69.86
49342;BME280;35210;41.606;-87.602;2023-04-27T07:09:51;100030.78;;;7.15;68.91
49342;BME280;35210;41.606;-87.602;2023-04-27T07:12:19;100029.16;;;7.12;68.85
49342;BME280;35210;41.606;-87.602;2023-04-27T07:14:47;100017.28;;;7.05;68.02
49342;BME280;35210;41.606;-87.602;2023-04-27T07:17:16;100014.06;;;7.00;67.56
49342;BME280;35210;41.606;-87.602;2023-04-27T07:19:44;100006.09;;;7.02;66.91
49342;BME280;35210;41.606;-87.602;2023-04-27T07:22:12;100006.84;;;7.04;66.80
49342;BME280;35210;41.606;-87.602;2023-04-27T07:24:41;100006.78;;;7.05;66.86
49342;BME280;35210;41.606;-87.602;2023-04-27T07:27:11;100002.22;;;7.09;66.43
49342;BME280;35210;41.606;-87.602;2023-04-27T07:29:40;100000.44;;;7.09;65.96
49342;BME280;35210;41.606;-87.602;2023-04-27T07:32:08;99996.09;;;7.08;66.39
49342;BME280;35210;41.606;-87.602;2023-04-27T07:34:36;99996.44;;;7.02;67.34
49342;BME280;35210;41.606;-87.602;2023-04-27T07:37:06;99995.84;;;6.97;67.63
49342;BME280;35210;41.606;-87.602;2023-04-27T07:39:35;99994.13;;;6.96;68.08
49342;BME280;35210;41.606;-87.602;2023-04-27T07:42:06;99988.03;;;6.96;68.33
49342;BME280;35210;41.606;-87.602;2023-04-27T07:44:36;99985.50;;;6.94;68.36
49342;BME280;35210;41.606;-87.602;2023-04-27T07:47:04;99982.09;;;6.92;68.23
49342;BME280;35210;41.606;-87.602;2023-04-27T07:49:32;99979.47;;;6.92;68.29
49342;BME280;35210;41.606;-87.602;2023-04-27T07:52:01;99989.13;;;6.91;68.68
49342;BME280;35210;41.606;-87.602;2023-04-27T07:54:29;99991.69;;;6.93;68.09
49342;BME280;35210;41.606;-87.602;2023-04-27T07:56:57;99998.78;;;6.91;68.02
49342;BME280;35210;41.606;-87.602;2023-04-27T07:59:28;99998.88;;;6.89;67.79
49342;BME280;35210;41.606;-87.602;2023-04-27T08:01:58;99995.56;;;6.86;67.25
49342;BME280;35210;41.606;-87.602;2023-04-27T08:04:27;99987.69;;;6.86;66.89
49342;BME280;35210;41.606;-87.602;2023-04-27T08:06:55;99984.19;;;6.85;66.95
49342;BME280;35210;41.606;-87.602;2023-04-27T08:09:23;99986.75;;;6.87;66.71
49342;BME280;35210;41.606;-87.602;2023-04-27T08:11:51;99979.81;;;6.86;66.83
49342;BME280;35210;41.606;-87.602;2023-04-27T08:14:19;99981.56;;;6.85;66.35
49342;BME280;35210;41.606;-87.602;2023-04-27T08:16:48;99976.41;;;6.84;65.87
49342;BME280;35210;41.606;-87.602;2023-04-27T08:19:18;99978.28;;;6.82;65.44
49342;BME280;35210;41.606;-87.602;2023-04-27T08:21:46;99969.72;;;6.78;65.45
49342;BME280;35210;41.606;-87.602;2023-04-27T08:24:14;99972.41;;;6.77;65.28
49342;BME280;35210;41.606;-87.602;2023-04-27T08:26:42;99982.16;;;6.75;65.29
49342;BME280;35210;41.606;-87.602;2023-04-27T08:29:10;99987.41;;;6.75;65.92
49342;BME280;35210;41.606;-87.602;2023-04-27T08:31:38;99989.41;;;6.70;66.47
49342;BME280;35210;41.606;-87.602;2023-04-27T08:34:06;99990.34;;;6.69;66.61
49342;BME280;35210;41.606;-87.602;2023-04-27T08:36:36;99992.97;;;6.69;66.64
49342;BME280;35210;41.606;-87.602;2023-04-27T08:39:04;99995.69;;;6.67;66.86
49342;BME280;35210;41.606;-87.602;2023-04-27T08:41:33;99991.53;;;6.63;67.88
49342;BME280;35210;41.606;-87.602;2023-04-27T08:44:01;99997.63;;;6.64;67.63
49342;BME280;35210;41.606;-87.602;2023-04-27T08:46:29;100001.25;;;6.61;67.60
49342;BME280;35210;41.606;-87.602;2023-04-27T08:48:58;99997.88;;;6.59;67.43
49342;BME280;35210;41.606;-87.602;2023-04-27T08:51:26;99995.47;;;6.54;67.37
49342;BME280;35210;41.606;-87.602;2023-04-27T08:53:57;100008.84;;;6.50;67.09
49342;BME280;35210;41.606;-87.602;2023-04-27T08:56:26;100016.94;;;6.45;66.73
49342;BME280;35210;41.606;-87.602;2023-04-27T08:58:55;100019.56;;;6.45;66.74
49342;BME280;35210;41.606;-87.602;2023-04-27T09:01:24;100014.47;;;6.42;66.32
49342;BME280;35210;41.606;-87.602;2023-04-27T09:03:55;100018.09;;;6.40;66.37
49342;BME280;35210;41.606;-87.602;2023-04-27T09:06:30;100017.41;;;6.36;66.00
49342;BME280;35210;41.606;-87.602;2023-04-27T09:09:00;100008.75;;;6.34;66.15
49342;BME280;35210;41.606;-87.602;2023-04-27T09:11:30;100021.09;;;6.32;65.99
49342;BME280;35210;41.606;-87.602;2023-04-27T09:13:59;100029.91;;;6.31;66.30
49342;BME280;35210;41.606;-87.602;2023-04-27T09:16:29;100028.34;;;6.27;66.52
49342;BME280;35210;41.606;-87.602;2023-04-27T09:18:57;100028.44;;;6.25;66.30
49342;BME280;35210;41.606;-87.602;2023-04-27T09:21:28;100026.81;;;6.23;66.08
49342;BME280;35210;41.606;-87.602;2023-04-27T09:23:56;100029.44;;;6.23;66.40
49342;BME280;35210;41.606;-87.602;2023-04-27T09:26:26;100024.41;;;6.18;66.38
49342;BME280;35210;41.606;-87.602;2023-04-27T09:28:56;100025.41;;;6.16;66.33
49342;BME280;35210;41.606;-87.602;2023-04-27T09:31:30;100015.06;;;6.13;66.45
49342;BME280;35210;41.606;-87.602;2023-04-27T09:33:59;100024.63;;;6.14;66.44
49342;BME280;35210;41.606;-87.602;2023-04-27T09:36:27;100030.03;;;6.11;67.43
49342;BME280;35210;41.606;-87.602;2023-04-27T09:38:57;100017.22;;;6.05;67.40
49342;BME280;35210;41.606;-87.602;2023-04-27T09:41:27;100006.97;;;6.00;68.06
49342;BME280;35210;41.606;-87.602;2023-04-27T09:43:56;100008.22;;;5.93;67.88
49342;BME280;35210;41.606;-87.602;2023-04-27T09:46:31;100017.94;;;5.91;68.30
49342;BME280;35210;41.606;-87.602;2023-04-27T09:49:03;100005.94;;;5.85;68.91
49342;BME280;35210;41.606;-87.602;2023-04-27T09:51:33;99984.03;;;5.86;68.97
49342;BME280;35210;41.606;-87.602;2023-04-27T09:54:03;99991.84;;;5.88;68.90
49342;BME280;35210;41.606;-87.602;2023-04-27T09:56:41;99980.72;;;5.83;68.95
49342;BME280;35210;41.606;-87.602;2023-04-27T09:59:26;99991.34;;;5.80;69.40
49342;BME280;35210;41.606;-87.602;2023-04-27T10:02:00;99993.13;;;5.79;69.80
49342;BME280;35210;41.606;-87.602;2023-04-27T10:04:58;99989.81;;;5.76;69.79
49342;BME280;35210;41.606;-87.602;2023-04-27T10:07:34;99983.84;;;5.72;69.52
49342;BME280;35210;41.606;-87.602;2023-04-27T10:10:03;99975.09;;;5.73;69.36
49342;BME280;35210;41.606;-87.602;2023-04-27T10:12:35;99981.47;;;5.68;69.28
49342;BME280;35210;41.606;-87.602;2023-04-27T10:15:12;99985.84;;;5.67;69.56
49342;BME280;35210;41.606;-87.602;2023-04-27T10:17:47;99975.53;;;5.64;69.63
49342;BME280;35210;41.606;-87.602;2023-04-27T10:20:15;99964.03;;;5.67;69.30
49342;BME280;35210;41.606;-87.602;2023-04-27T10:22:46;99958.94;;;5.64;68.60
49342;BME280;35210;41.606;-87.602;2023-04-27T10:25:20;99949.41;;;5.63;69.23
49342;BME280;35210;41.606;-87.602;2023-04-27T10:27:52;99953.00;;;5.60;69.30
49342;BME280;35210;41.606;-87.602;2023-04-27T10:30:22;99940.84;;;5.59;69.83
49342;BME280;35210;41.606;-87.602;2023-04-27T10:32:52;99941.06;;;5.54;70.13
49342;BME280;35210;41.606;-87.602;2023-04-27T10:35:21;99938.50;;;5.53;70.63
49342;BME280;35210;41.606;-87.602;2023-04-27T10:37:50;99929.09;;;5.49;71.23
49342;BME280;35210;41.606;-87.602;2023-04-27T10:40:18;99937.88;;;5.48;71.10
49342;BME280;35210;41.606;-87.602;2023-04-27T10:42:47;99938.09;;;5.43;70.49
49342;BME280;35210;41.606;-87.602;2023-04-27T10:45:27;99933.94;;;5.39;70.51
49342;BME280;35210;41.606;-87.602;2023-04-27T10:47:59;99944.00;;;5.29;70.42
49342;BME280;35210;41.606;-87.602;2023-04-27T10:50:28;99955.06;;;5.17;70.96
49342;BME280;35210;41.606;-87.602;2023-04-27T10:52:59;99940.63;;;5.09;71.67
49342;BME280;35210;41.606;-87.602;2023-04-27T10:55:29;99936.31;;;5.08;71.73
49342;BME280;35210;41.606;-87.602;2023-04-27T10:57:58;99942.41;;;5.08;72.43
49342;BME280;35210;41.606;-87.602;2023-04-27T11:00:29;99936.25;;;5.09;71.18
49342;BME280;35210;41.606;-87.602;2023-04-27T11:03:11;99934.50;;;5.10;70.60
49342;BME280;35210;41.606;-87.602;2023-04-27T11:05:41;99943.31;;;5.07;70.91
49342;BME280;35210;41.606;-87.602;2023-04-27T11:08:11;99943.31;;;5.07;71.06
49342;BME280;35210;41.606;-87.602;2023-04-27T11:10:42;99937.81;;;5.13;71.51
49342;BME280;35210;41.606;-87.602;2023-04-27T11:13:13;99928.13;;;5.15;71.13
49342;BME280;35210;41.606;-87.602;2023-04-27T11:15:44;99931.44;;;5.19;71.24
49342;BME280;35210;41.606;-87.602;2023-04-27T11:18:12;99922.56;;;5.21;70.69
49342;BME280;35210;41.606;-87.602;2023-04-27T11:20:41;99929.41;;;5.24;71.06
49342;BME280;35210;41.606;-87.602;2023-04-27T11:23:10;99917.81;;;5.29;70.43
49342;BME280;35210;41.606;-87.602;2023-04-27T11:25:43;99916.13;;;5.28;69.59
49342;BME280;35210;41.606;-87.602;2023-04-27T11:28:16;99900.97;;;5.35;68.60
49342;BME280;35210;41.606;-87.602;2023-04-27T11:30:46;99906.91;;;5.39;68.36
49342;BME280;35210;41.606;-87.602;2023-04-27T11:33:15;99903.22;;;5.43;68.31
49342;BME280;35210;41.606;-87.602;2023-04-27T11:35:43;99904.91;;;5.44;66.89
49342;BME280;35210;41.606;-87.602;2023-04-27T11:38:20;99899.50;;;5.47;66.07
49342;BME280;35210;41.606;-87.602;2023-04-27T11:40:59;99895.69;;;5.54;65.79
49342;BME280;35210;41.606;-87.602;2023-04-27T11:43:27;99891.97;;;5.58;65.01
49342;BME280;35210;41.606;-87.602;2023-04-27T11:45:57;99897.84;;;5.63;65.33
49342;BME280;35210;41.606;-87.602;2023-04-27T11:48:29;99904.25;;;5.75;64.05
49342;BME280;35210;41.606;-87.602;2023-04-27T11:50:58;99906.94;;;5.73;63.04
49342;BME280;35210;41.606;-87.602;2023-04-27T11:53:31;99912.88;;;5.77;61.70
49342;BME280;35210;41.606;-87.602;2023-04-27T11:56:00;99916.22;;;5.80;61.49
49342;BME280;35210;41.606;-87.602;2023-04-27T11:58:32;99917.97;;;5.80;61.31
49342;BME280;35210;41.606;-87.602;2023-04-27T12:01:02;99921.28;;;5.83;61.04
49342;BME280;35210;41.606;-87.602;2023-04-27T12:03:31;99923.75;;;5.86;60.99
49342;BME280;35210;41.606;-87.602;2023-04-27T12:05:59;99933.28;;;5.89;61.17
49342;BME280;35210;41.606;-87.602;2023-04-27T12:08:27;99922.56;;;5.93;60.66
49342;BME280;35210;41.606;-87.602;2023-04-27T12:10:55;99914.28;;;6.01;60.24
49342;BME280;35210;41.606;-87.602;2023-04-27T12:13:24;99912.44;;;6.03;59.48
49342;BME280;35210;41.606;-87.602;2023-04-27T12:15:52;99921.75;;;6.09;59.92
49342;BME280;35210;41.606;-87.602;2023-04-27T12:18:22;99912.81;;;6.13;59.85
49342;BME280;35210;41.606;-87.602;2023-04-27T12:20:51;99911.41;;;6.23;59.62
49342;BME280;35210;41.606;-87.602;2023-04-27T12:23:19;99904.53;;;6.38;60.48
49342;BME280;35210;41.606;-87.602;2023-04-27T12:25:47;99916.94;;;6.51;61.06
49342;BME280;35210;41.606;-87.602;2023-04-27T12:28:15;99918.13;;;6.62;58.12
49342;BME280;35210;41.606;-87.602;2023-04-27T12:30:45;99913.91;;;6.75;57.96
49342;BME280;35210;41.606;-87.602;2023-04-27T12:33:14;99912.41;;;6.86;57.05
49342;BME280;35210;41.606;-87.602;2023-04-27T12:35:45;99907.50;;;6.96;54.64
49342;BME280;35210;41.606;-87.602;2023-04-27T12:38:13;99912.31;;;7.04;54.29
49342;BME280;35210;41.606;-87.602;2023-04-27T12:40:41;99901.31;;;7.13;53.44
49342;BME280;35210;41.606;-87.602;2023-04-27T12:43:09;99895.66;;;7.20;53.36
49342;BME280;35210;41.606;-87.602;2023-04-27T12:45:37;99892.25;;;7.34;53.48
49342;BME280;35210;41.606;-87.602;2023-04-27T12:48:06;99881.69;;;7.50;53.67
49342;BME280;35210;41.606;-87.602;2023-04-27T12:50:36;99879.97;;;7.65;53.37
49342;BME280;35210;41.606;-87.602;2023-04-27T12:53:06;99878.59;;;7.73;53.27